createdAt,value
2022-08-17T00:01:59.482Z,19.32
2022-08-17T00:17:06.523Z,21.47
2022-08-17T00:33:16.006Z,20.70
2022-08-17T00:47:18.268Z,20.00
2022-08-17T01:02:24.074Z,18.42
2022-08-17T01:17:29.124Z,19.52
2022-08-17T01:32:34.373Z,16.35
2022-08-17T01:47:39.662Z,20.12
2022-08-17T02:02:45.961Z,18.10
2022-08-17T02:17:54.680Z,19.80
2022-08-17T02:32:58.640Z,19.23
2022-08-17T02:48:04.356Z,21.07
2022-08-17T03:03:12.925Z,19.70
2022-08-17T03:18:25.774Z,19.70
2022-08-17T03:33:27.463Z,26.33
2022-08-17T03:48:50.635Z,22.65
2022-08-17T04:03:55.749Z,25.02
2022-08-17T04:19:01.455Z,23.30
2022-08-17T04:34:06.620Z,22.70
2022-08-17T04:49:12.762Z,25.12
2022-08-17T05:04:34.506Z,22.98
2022-08-17T05:19:28.602Z,24.95
2022-08-17T05:34:33.655Z,39.23
2022-08-17T05:49:38.770Z,37.40
2022-08-17T06:04:49.399Z,44.18
2022-08-17T06:19:58.313Z,32.98
2022-08-17T06:35:04.898Z,30.65
2022-08-17T07:20:33.764Z,15.13
2022-08-17T07:35:43.948Z,16.17
2022-08-17T07:50:52.285Z,16.13
2022-08-17T08:06:03.096Z,13.97
2022-08-17T08:21:11.325Z,13.83
2022-08-17T08:37:15.819Z,14.53
2022-08-17T08:51:47.066Z,14.93
2022-08-17T09:07:13.129Z,9.50
2022-08-17T09:22:43.676Z,11.53
2022-08-17T09:38:09.857Z,9.77
2022-08-17T09:53:15.179Z,9.90
2022-08-17T10:08:38.323Z,9.37
2022-08-17T10:24:03.866Z,11.80
2022-08-17T10:39:32.802Z,8.60
2022-08-17T10:54:40.846Z,12.40
2022-08-17T11:10:00.237Z,15.10
2022-08-17T11:25:16.926Z,11.73
2022-08-17T11:40:44.500Z,18.07
2022-08-17T11:55:58.668Z,7.43
2022-08-17T12:11:09.741Z,9.03
2022-08-17T12:26:19.495Z,10.37
2022-08-17T12:41:44.224Z,7.90
2022-08-17T12:56:49.618Z,7.67
2022-08-17T13:11:58.824Z,8.27
2022-08-17T13:42:57.895Z,8.60
2022-08-17T13:58:12.106Z,7.63
2022-08-17T14:13:17.113Z,5.67
2022-08-17T14:28:22.174Z,6.97
2022-08-17T14:43:27.714Z,9.60
2022-08-17T14:58:32.773Z,5.53
2022-08-17T15:13:38.272Z,4.73
2022-08-17T15:28:45.023Z,7.47
2022-08-17T15:43:52.025Z,5.97
2022-08-17T15:58:57.138Z,7.47
2022-08-17T16:14:02.134Z,8.93
2022-08-17T16:29:08.470Z,6.43
2022-08-17T16:44:15.900Z,8.97
2022-08-17T16:59:30.840Z,12.40
2022-08-17T17:14:32.469Z,6.53
2022-08-17T17:29:55.540Z,9.63
2022-08-17T17:45:09.629Z,28.47
2022-08-17T18:00:20.439Z,13.03
2022-08-17T18:15:41.440Z,16.40
2022-08-17T18:30:48.750Z,20.83
2022-08-17T18:45:57.442Z,19.37
2022-08-17T19:01:03.302Z,32.03
2022-08-17T19:16:23.575Z,27.37
2022-08-17T19:31:31.792Z,21.53
2022-08-17T19:46:56.171Z,49.83
2022-08-17T20:02:02.997Z,39.03
2022-08-17T20:17:09.715Z,24.07
2022-08-17T20:32:17.948Z,20.77
2022-08-17T20:47:38.117Z,21.53
2022-08-17T21:02:49.550Z,16.70
2022-08-17T21:18:09.367Z,14.50
2022-08-17T21:33:31.445Z,21.47
2022-08-17T21:48:48.311Z,18.23
2022-08-17T22:03:58.234Z,25.50
2022-08-17T22:19:05.355Z,20.63
2022-08-17T22:34:15.787Z,22.13
2022-08-17T22:49:29.371Z,28.23
2022-08-17T23:04:37.469Z,21.20
2022-08-17T23:19:42.892Z,21.25
2022-08-17T23:34:48.113Z,25.25
2022-08-17T23:49:54.220Z,21.52
